createdAt,value
2023-10-10T00:02:06.165Z,16.79
2023-10-10T00:07:15.425Z,17.29
2023-10-10T00:12:27.458Z,16.67
2023-10-10T00:17:36.140Z,17.19
2023-10-10T00:22:38.453Z,16.65
2023-10-10T00:27:45.155Z,16.10
2023-10-10T00:32:47.599Z,16.42
2023-10-10T00:37:49.768Z,16.98
2023-10-10T00:42:51.505Z,16.82
2023-10-10T00:47:54.695Z,16.12
2023-10-10T00:53:02.124Z,16.01
2023-10-10T00:58:05.566Z,15.96
2023-10-10T01:03:21.601Z,16.38
2023-10-10T01:08:28.290Z,17.00
2023-10-10T01:13:32.009Z,16.76
2023-10-10T01:18:53.072Z,16.03
2023-10-10T01:23:59.360Z,16.03
2023-10-10T01:29:14.046Z,16.13
2023-10-10T01:34:32.149Z,16.92
2023-10-10T01:39:50.778Z,16.96
2023-10-10T01:44:53.379Z,16.26
2023-10-10T01:49:59.778Z,16.64
2023-10-10T01:55:01.946Z,16.99
2023-10-10T02:00:20.895Z,16.31
2023-10-10T02:05:46.639Z,16.17
2023-10-10T02:10:51.695Z,16.61
2023-10-10T02:15:54.579Z,17.16
2023-10-10T02:21:06.933Z,16.21
2023-10-10T02:26:29.000Z,16.20
2023-10-10T02:31:33.634Z,16.65
2023-10-10T02:36:36.521Z,16.90
2023-10-10T02:41:48.992Z,15.90
2023-10-10T02:46:54.934Z,16.15
2023-10-10T02:51:57.990Z,16.82
2023-10-10T02:57:23.373Z,16.40
2023-10-10T03:02:30.019Z,15.76
2023-10-10T03:07:31.986Z,15.70
2023-10-10T03:12:38.381Z,15.59
2023-10-10T03:18:03.553Z,16.44
2023-10-10T03:23:15.733Z,16.57
2023-10-10T03:28:21.702Z,15.77
2023-10-10T03:33:38.571Z,15.67
2023-10-10T03:38:44.250Z,15.63
2023-10-10T03:44:04.318Z,15.93
2023-10-10T03:49:24.604Z,16.54
2023-10-10T03:54:45.168Z,16.03
2023-10-10T04:00:05.437Z,15.60
2023-10-10T04:05:28.015Z,15.34
2023-10-10T04:10:48.912Z,16.23
2023-10-10T04:16:09.201Z,16.41
2023-10-10T04:21:30.305Z,15.59
2023-10-10T04:26:50.612Z,15.77
2023-10-10T04:32:11.030Z,16.32
2023-10-10T04:37:31.024Z,15.63
2023-10-10T04:42:51.448Z,15.47
2023-10-10T04:48:11.800Z,15.46
2023-10-10T04:53:32.456Z,16.09
2023-10-10T04:58:52.879Z,16.02
2023-10-10T05:04:13.336Z,15.47
2023-10-10T05:09:33.232Z,16.08
2023-10-10T05:14:53.500Z,15.40
2023-10-10T05:20:13.694Z,15.24
2023-10-10T05:25:15.533Z,15.24
2023-10-10T05:30:26.512Z,15.88
2023-10-10T05:35:36.393Z,15.88
2023-10-10T05:40:39.875Z,15.21
2023-10-10T05:45:42.082Z,15.20
2023-10-10T05:50:44.377Z,15.07
2023-10-10T05:55:52.655Z,16.11
2023-10-10T06:00:56.106Z,15.56
2023-10-10T06:05:58.323Z,15.64
2023-10-10T06:11:01.270Z,15.28
2023-10-10T06:16:14.119Z,16.28
2023-10-10T06:21:16.477Z,16.75
2023-10-10T06:26:23.044Z,16.06
2023-10-10T06:31:35.586Z,15.52
2023-10-10T06:36:39.206Z,15.34
2023-10-10T06:41:42.475Z,17.03
2023-10-10T06:46:50.674Z,17.04
2023-10-10T06:51:56.774Z,17.15
2023-10-10T06:57:01.690Z,17.25
2023-10-10T07:02:22.195Z,16.89
2023-10-10T07:07:27.724Z,17.06
2023-10-10T07:12:30.199Z,17.29
2023-10-10T07:17:31.958Z,15.61
2023-10-10T07:22:35.687Z,17.12
2023-10-10T07:27:41.144Z,15.94
2023-10-10T07:32:53.051Z,15.65
2023-10-10T07:38:00.398Z,16.79
2023-10-10T07:43:04.700Z,17.31
2023-10-10T07:48:06.979Z,17.55
2023-10-10T07:53:14.027Z,17.39
2023-10-10T07:58:15.958Z,17.16
2023-10-10T08:03:23.431Z,17.23
2023-10-10T08:08:27.429Z,17.62
2023-10-10T08:13:30.105Z,17.66
2023-10-10T08:18:41.990Z,17.58
2023-10-10T08:23:46.525Z,17.70
2023-10-10T08:28:51.896Z,17.74
2023-10-10T08:33:53.649Z,16.68
2023-10-10T08:38:57.578Z,16.24
2023-10-10T08:43:59.551Z,16.21
2023-10-10T08:49:06.030Z,16.72
2023-10-10T08:54:13.470Z,16.66
2023-10-10T08:59:19.283Z,16.58
2023-10-10T09:04:21.808Z,16.81
2023-10-10T09:09:41.171Z,17.21
2023-10-10T09:14:51.722Z,17.58
2023-10-10T09:19:53.771Z,17.89
2023-10-10T09:24:56.966Z,17.96
2023-10-10T09:29:59.256Z,18.00
2023-10-10T09:35:01.019Z,17.24
2023-10-10T09:40:17.042Z,17.29
2023-10-10T09:45:46.956Z,17.37
2023-10-10T09:51:08.774Z,17.59
2023-10-10T09:56:11.147Z,18.11
2023-10-10T10:01:24.482Z,18.13
2023-10-10T10:07:25.143Z,18.69
2023-10-10T10:12:48.486Z,18.71
2023-10-10T10:18:13.097Z,18.58
2023-10-10T10:23:29.966Z,18.66
2023-10-10T10:28:38.407Z,18.38
2023-10-10T10:34:00.310Z,18.97
2023-10-10T10:39:26.614Z,18.93
2023-10-10T10:44:29.018Z,19.58
2023-10-10T10:49:39.462Z,19.10
2023-10-10T10:54:44.747Z,19.59
2023-10-10T10:59:56.619Z,19.15
2023-10-10T11:04:59.849Z,19.37
2023-10-10T11:10:08.425Z,19.25
2023-10-10T11:15:13.586Z,19.21
2023-10-10T11:20:30.435Z,19.40
2023-10-10T11:25:42.826Z,20.03
2023-10-10T11:30:47.109Z,19.65
2023-10-10T11:36:02.669Z,19.18
2023-10-10T11:41:10.426Z,19.22
2023-10-10T11:46:13.812Z,19.60
2023-10-10T11:51:15.987Z,18.81
2023-10-10T11:56:18.694Z,19.24
2023-10-10T12:01:40.444Z,18.89
2023-10-10T12:06:43.152Z,18.78
2023-10-10T12:11:44.894Z,18.82
2023-10-10T12:16:51.609Z,18.69
2023-10-10T12:21:53.421Z,18.74
2023-10-10T12:26:55.601Z,18.78
2023-10-10T12:31:57.918Z,18.74
2023-10-10T12:37:02.864Z,18.80
2023-10-10T12:42:04.963Z,18.66
2023-10-10T12:47:09.912Z,18.77
2023-10-10T12:52:18.635Z,18.91
2023-10-10T12:57:24.468Z,18.91
2023-10-10T13:02:27.703Z,18.96
2023-10-10T13:07:36.038Z,18.87
2023-10-10T13:12:38.573Z,18.95
2023-10-10T13:17:51.747Z,18.94
2023-10-10T13:22:53.643Z,19.15
2023-10-10T13:27:55.358Z,19.09
2023-10-10T13:32:57.232Z,19.14
2023-10-10T13:37:59.020Z,19.44
2023-10-10T13:43:00.998Z,19.47
2023-10-10T13:48:04.663Z,19.47
2023-10-10T13:53:06.683Z,19.41
2023-10-10T13:58:11.456Z,19.40
2023-10-10T14:03:16.117Z,19.56
2023-10-10T14:08:19.322Z,19.06
2023-10-10T14:13:22.238Z,19.68
2023-10-10T14:18:28.513Z,20.12
2023-10-10T14:23:31.459Z,19.59
2023-10-10T14:28:35.162Z,19.35
2023-10-10T14:33:40.559Z,19.71
2023-10-10T14:38:46.386Z,19.20
2023-10-10T14:43:50.476Z,19.70
2023-10-10T14:49:02.372Z,19.78
2023-10-10T14:54:14.256Z,20.03
2023-10-10T14:59:32.935Z,19.71
2023-10-10T15:04:36.805Z,19.68
2023-10-10T15:09:38.629Z,19.33
2023-10-10T15:14:40.470Z,19.47
2023-10-10T15:19:43.205Z,19.88
2023-10-10T15:24:51.328Z,19.75
2023-10-10T15:29:53.217Z,19.58
2023-10-10T15:34:56.517Z,20.12
2023-10-10T15:39:58.966Z,19.29
2023-10-10T15:45:00.743Z,19.61
2023-10-10T15:50:02.507Z,19.56
2023-10-10T15:55:07.424Z,19.89
2023-10-10T16:00:15.409Z,19.74
2023-10-10T16:05:17.656Z,19.41
2023-10-10T16:10:19.482Z,19.38
2023-10-10T16:15:30.335Z,19.30
2023-10-10T16:20:37.116Z,19.31
2023-10-10T16:25:39.717Z,19.21
2023-10-10T16:30:43.001Z,19.26
2023-10-10T16:35:47.704Z,19.40
2023-10-10T16:40:51.559Z,19.18
2023-10-10T16:45:53.454Z,19.22
2023-10-10T16:50:55.397Z,19.51
2023-10-10T16:56:07.846Z,20.36
2023-10-10T17:01:14.124Z,20.49
2023-10-10T17:06:24.407Z,20.38
2023-10-10T17:11:28.083Z,20.33
2023-10-10T17:16:30.679Z,19.44
2023-10-10T17:21:35.657Z,19.31
2023-10-10T17:26:45.117Z,19.06
2023-10-10T17:31:47.517Z,19.11
2023-10-10T17:36:58.852Z,18.95
2023-10-10T17:42:01.159Z,18.92
2023-10-10T17:47:04.394Z,18.95
2023-10-10T17:52:06.572Z,19.05
2023-10-10T17:57:11.018Z,18.77
2023-10-10T18:02:12.733Z,18.61
2023-10-10T18:07:15.313Z,18.28
2023-10-10T18:12:17.960Z,18.09
2023-10-10T18:17:23.150Z,18.42
2023-10-10T18:22:26.604Z,18.33
2023-10-10T18:27:28.332Z,18.18
2023-10-10T18:32:30.229Z,17.89
2023-10-10T18:37:32.202Z,18.04
2023-10-10T18:42:33.923Z,18.40
2023-10-10T18:47:36.375Z,18.21
2023-10-10T18:52:38.270Z,18.30
2023-10-10T18:57:39.978Z,18.10
2023-10-10T19:02:45.863Z,17.98
2023-10-10T19:07:47.676Z,17.55
2023-10-10T19:12:52.541Z,17.93
2023-10-10T19:17:59.946Z,17.91
2023-10-10T19:23:10.227Z,18.10
2023-10-10T19:28:12.109Z,17.62
2023-10-10T19:33:16.470Z,17.20
2023-10-10T19:38:20.759Z,17.16
2023-10-10T19:43:26.564Z,17.28
2023-10-10T19:48:31.424Z,17.55
2023-10-10T19:53:34.195Z,17.90
2023-10-10T19:58:36.014Z,17.68
2023-10-10T20:03:40.554Z,17.44
2023-10-10T20:08:42.740Z,17.15
2023-10-10T20:13:46.629Z,17.07
2023-10-10T20:18:49.013Z,17.05
2023-10-10T20:23:51.164Z,17.43
2023-10-10T20:28:54.065Z,17.79
2023-10-10T20:33:55.904Z,17.71
2023-10-10T20:38:57.998Z,17.16
2023-10-10T20:44:00.670Z,16.72
2023-10-10T20:49:02.510Z,16.93
2023-10-10T20:54:05.273Z,17.27
2023-10-10T20:59:08.462Z,17.24
2023-10-10T21:04:10.180Z,17.07
2023-10-10T21:09:12.355Z,16.77
2023-10-10T21:14:14.702Z,16.75
2023-10-10T21:19:16.743Z,16.70
2023-10-10T21:24:18.828Z,16.66
2023-10-10T21:29:21.036Z,17.02
2023-10-10T21:34:24.709Z,17.41
2023-10-10T21:39:26.600Z,16.95
2023-10-10T21:44:28.888Z,16.49
2023-10-10T21:49:30.907Z,16.54
2023-10-10T21:54:33.960Z,16.43
2023-10-10T21:59:35.881Z,16.61
2023-10-10T22:04:37.894Z,16.56
2023-10-10T22:09:39.807Z,16.49
2023-10-10T22:14:42.604Z,16.57
2023-10-10T22:19:44.307Z,16.48
2023-10-10T22:24:46.003Z,16.48
2023-10-10T22:29:47.710Z,16.39
2023-10-10T22:34:49.475Z,16.58
2023-10-10T22:39:51.732Z,16.78
2023-10-10T22:44:54.982Z,17.09
2023-10-10T22:49:58.042Z,16.38
2023-10-10T22:54:59.831Z,16.09
2023-10-10T23:00:07.241Z,16.18
2023-10-10T23:05:10.031Z,16.18
2023-10-10T23:10:13.909Z,16.68
2023-10-10T23:15:17.381Z,16.45
2023-10-10T23:20:22.218Z,15.93
2023-10-10T23:25:27.401Z,15.80
2023-10-10T23:30:29.618Z,16.24
2023-10-10T23:35:32.686Z,16.68
2023-10-10T23:40:42.848Z,16.63
2023-10-10T23:45:45.187Z,16.25
2023-10-10T23:50:47.541Z,16.03
2023-10-10T23:55:49.659Z,15.81
